createdAt,value
2022-09-27T00:00:19.398Z,36.69
2022-09-27T00:00:50.921Z,36.83
2022-09-27T00:01:22.432Z,36.86
2022-09-27T00:01:53.980Z,37.04
2022-09-27T00:02:25.638Z,36.69
2022-09-27T00:02:57.275Z,36.98
2022-09-27T00:03:29.256Z,36.95
2022-09-27T00:04:00.787Z,36.98
2022-09-27T00:04:32.282Z,36.90
2022-09-27T00:05:03.914Z,36.95
2022-09-27T00:05:35.458Z,37.18
2022-09-27T00:06:08.178Z,36.90
2022-09-27T00:06:41.061Z,37.04
2022-09-27T00:07:12.789Z,36.93
2022-09-27T00:07:44.660Z,37.22
2022-09-27T00:08:16.282Z,37.03
2022-09-27T00:08:47.867Z,36.94
2022-09-27T00:09:19.401Z,36.95
2022-09-27T00:09:50.963Z,37.05
2022-09-27T00:10:22.488Z,37.01
2022-09-27T00:11:03.826Z,36.88
2022-09-27T00:11:36.048Z,36.81
2022-09-27T00:12:07.552Z,36.98
2022-09-27T00:12:39.150Z,36.85
2022-09-27T00:13:10.607Z,36.89
2022-09-27T00:13:42.174Z,36.93
2022-09-27T00:14:14.151Z,36.97
2022-09-27T00:14:45.578Z,36.88
2022-09-27T00:15:17.198Z,36.80
2022-09-27T00:15:48.806Z,37.06
2022-09-27T00:16:21.394Z,37.15
2022-09-27T00:16:52.944Z,36.68
2022-09-27T00:17:24.370Z,37.00
2022-09-27T00:17:55.794Z,37.03
2022-09-27T00:18:27.290Z,37.06
2022-09-27T00:18:59.283Z,37.09
2022-09-27T00:19:31.027Z,36.93
2022-09-27T00:20:02.649Z,37.11
2022-09-27T00:20:34.586Z,37.01
2022-09-27T00:21:10.073Z,36.92
2022-09-27T00:21:41.751Z,37.02
2022-09-27T00:22:13.276Z,36.83
2022-09-27T00:22:44.784Z,36.83
2022-09-27T00:23:16.321Z,36.68
2022-09-27T00:23:47.879Z,37.02
2022-09-27T00:24:20.407Z,37.03
2022-09-27T00:24:52.023Z,37.03
2022-09-27T00:25:23.494Z,36.70
2022-09-27T00:25:55.718Z,36.92
2022-09-27T00:26:27.229Z,37.10
2022-09-27T00:26:58.690Z,36.91
2022-09-27T00:27:30.332Z,36.97
2022-09-27T00:28:01.851Z,37.04
2022-09-27T00:28:33.391Z,36.93
2022-09-27T00:29:05.010Z,36.95
2022-09-27T00:29:36.560Z,37.16
2022-09-27T00:30:08.365Z,36.77
2022-09-27T00:30:41.868Z,36.93
2022-09-27T00:31:23.250Z,36.97
2022-09-27T00:31:54.801Z,36.82
2022-09-27T00:32:26.265Z,37.15
2022-09-27T00:32:57.731Z,36.90
2022-09-27T00:33:29.210Z,36.94
2022-09-27T00:34:01.287Z,36.82
2022-09-27T00:34:32.758Z,36.77
2022-09-27T00:35:04.402Z,37.10
2022-09-27T00:35:35.977Z,37.06
2022-09-27T00:36:07.497Z,37.07
2022-09-27T00:36:39.047Z,36.84
2022-09-27T00:37:10.565Z,36.92
2022-09-27T00:37:42.124Z,37.02
2022-09-27T00:38:13.582Z,36.95
2022-09-27T00:38:45.066Z,37.01
2022-09-27T00:39:16.682Z,37.04
2022-09-27T00:39:48.289Z,37.00
2022-09-27T00:40:19.935Z,36.83
2022-09-27T00:40:51.433Z,36.66
2022-09-27T00:41:23.897Z,36.81
2022-09-27T00:41:55.430Z,37.05
2022-09-27T00:42:26.957Z,36.96
2022-09-27T00:42:58.492Z,37.13
2022-09-27T00:43:47.903Z,37.12
2022-09-27T00:44:25.091Z,37.11
2022-09-27T00:45:00.708Z,36.85
2022-09-27T00:45:32.224Z,37.04
2022-09-27T00:46:03.962Z,36.92
2022-09-27T00:46:38.160Z,36.85
2022-09-27T00:47:30.268Z,37.08
2022-09-27T00:48:02.428Z,37.08
2022-09-27T00:48:33.953Z,37.04
2022-09-27T00:49:06.551Z,36.85
2022-09-27T00:49:42.249Z,37.05
2022-09-27T00:50:33.974Z,37.14
2022-09-27T00:51:05.522Z,37.02
2022-09-27T00:51:37.099Z,36.88
2022-09-27T00:52:14.190Z,37.21
2022-09-27T00:52:47.280Z,36.91
2022-09-27T00:53:29.267Z,37.06
2022-09-27T00:54:00.711Z,36.93
2022-09-27T00:54:32.156Z,36.98
2022-09-27T00:55:07.544Z,36.62
2022-09-27T00:55:40.731Z,36.99
2022-09-27T00:56:13.377Z,37.21
2022-09-27T00:56:44.841Z,37.21
2022-09-27T00:57:16.716Z,36.93
2022-09-27T00:57:48.219Z,37.23
2022-09-27T00:58:21.891Z,37.16
2022-09-27T00:58:57.736Z,36.75
2022-09-27T00:59:30.525Z,37.09
2022-09-27T01:00:03.603Z,37.07
2022-09-27T01:00:35.971Z,36.93
2022-09-27T01:01:07.718Z,36.99
2022-09-27T01:01:39.392Z,36.91
2022-09-27T01:02:11.048Z,36.92
2022-09-27T01:02:43.877Z,36.82
2022-09-27T01:03:16.086Z,37.00
2022-09-27T01:03:49.732Z,36.96
2022-09-27T01:04:24.828Z,36.90
2022-09-27T01:04:56.855Z,37.00
2022-09-27T01:05:28.313Z,36.96
2022-09-27T01:05:59.837Z,37.04
2022-09-27T01:06:31.391Z,37.22
2022-09-27T01:07:02.909Z,37.06
2022-09-27T01:07:34.467Z,36.89
2022-09-27T01:08:05.971Z,37.11
2022-09-27T01:08:37.481Z,36.88
2022-09-27T01:09:09.305Z,37.18
2022-09-27T01:09:40.839Z,36.79
2022-09-27T01:10:12.430Z,36.96
2022-09-27T01:10:50.455Z,36.73
2022-09-27T01:11:34.858Z,36.86
2022-09-27T01:12:08.956Z,36.87
2022-09-27T01:13:15.705Z,36.82
2022-09-27T01:14:07.364Z,36.63
2022-09-27T01:14:44.438Z,36.99
2022-09-27T01:15:21.548Z,37.01
2022-09-27T01:15:53.013Z,37.04
2022-09-27T01:16:28.042Z,36.81
2022-09-27T01:17:06.382Z,36.92
2022-09-27T01:17:40.725Z,36.81
2022-09-27T01:18:16.212Z,36.78
2022-09-27T01:18:55.972Z,36.83
2022-09-27T01:19:27.376Z,36.58
2022-09-27T01:20:17.140Z,36.92
2022-09-27T01:21:10.538Z,37.04
2022-09-27T01:22:00.669Z,36.99
2022-09-27T01:22:50.401Z,36.82
2022-09-27T01:23:24.806Z,36.98
2022-09-27T01:23:59.368Z,37.07
2022-09-27T01:24:49.239Z,36.83
2022-09-27T01:25:50.055Z,36.99
2022-09-27T01:26:39.958Z,36.74
2022-09-27T01:27:11.365Z,36.66
2022-09-27T01:28:03.126Z,37.03
2022-09-27T01:28:43.492Z,36.78
2022-09-27T01:29:29.962Z,36.85
2022-09-27T01:30:20.119Z,36.79
2022-09-27T01:30:56.297Z,36.79
2022-09-27T01:31:30.346Z,36.98
2022-09-27T01:32:14.236Z,36.80
2022-09-27T01:33:03.739Z,36.88
2022-09-27T01:33:35.372Z,36.86
2022-09-27T01:34:12.820Z,36.97
2022-09-27T01:34:45.428Z,36.78
2022-09-27T01:35:37.020Z,36.76
2022-09-27T01:36:08.477Z,36.84
2022-09-27T01:36:39.919Z,36.63
2022-09-27T01:37:17.475Z,37.08
2022-09-27T01:37:54.663Z,36.75
2022-09-27T01:38:42.968Z,36.79
2022-09-27T01:39:20.335Z,36.94
2022-09-27T01:40:09.703Z,36.87
2022-09-27T01:40:47.780Z,36.81
2022-09-27T01:41:39.097Z,36.64
2022-09-27T01:42:22.469Z,36.80
2022-09-27T01:42:57.324Z,36.81
2022-09-27T01:43:37.273Z,36.87
2022-09-27T01:44:10.428Z,36.85
2022-09-27T01:44:50.418Z,36.77
2022-09-27T01:45:23.817Z,36.96
2022-09-27T01:45:56.816Z,37.05
2022-09-27T01:46:30.016Z,36.84
2022-09-27T01:47:05.431Z,36.99
2022-09-27T01:47:39.659Z,37.02
2022-09-27T01:48:12.836Z,36.87
2022-09-27T01:48:45.298Z,37.01
2022-09-27T01:49:18.877Z,36.89
2022-09-27T01:49:58.058Z,36.69
2022-09-27T01:50:32.371Z,36.84
2022-09-27T01:51:11.236Z,36.91
2022-09-27T01:51:44.514Z,36.62
2022-09-27T01:52:16.815Z,36.61
2022-09-27T01:52:49.302Z,36.64
2022-09-27T01:53:34.433Z,36.84
2022-09-27T01:54:06.041Z,36.81
2022-09-27T01:54:38.964Z,36.97
2022-09-27T01:55:10.728Z,36.74
2022-09-27T01:55:42.220Z,36.61
2022-09-27T01:56:15.481Z,36.65
2022-09-27T01:56:50.883Z,36.48
2022-09-27T01:57:25.613Z,36.98
2022-09-27T01:58:01.326Z,36.71
2022-09-27T01:58:34.225Z,36.72
2022-09-27T01:59:12.806Z,36.86
2022-09-27T01:59:48.240Z,36.53
2022-09-27T02:00:19.772Z,36.70
2022-09-27T02:00:51.356Z,36.91
2022-09-27T02:01:22.845Z,36.42
2022-09-27T02:01:54.387Z,36.87
2022-09-27T02:02:26.541Z,36.94
2022-09-27T02:02:59.139Z,36.90
2022-09-27T02:03:35.572Z,36.73
2022-09-27T02:04:08.544Z,36.48
2022-09-27T02:04:40.354Z,36.84
2022-09-27T02:05:11.942Z,36.80
2022-09-27T02:05:47.600Z,36.94
2022-09-27T02:06:20.109Z,36.80
2022-09-27T02:06:53.694Z,36.72
2022-09-27T02:07:29.131Z,36.71
2022-09-27T02:08:05.478Z,36.79
2022-09-27T02:08:39.598Z,36.80
2022-09-27T02:09:22.699Z,36.72
2022-09-27T02:09:56.414Z,36.71
2022-09-27T02:10:53.713Z,36.51
2022-09-27T02:11:25.170Z,36.78
2022-09-27T02:11:58.097Z,36.81
2022-09-27T02:12:33.279Z,36.51
2022-09-27T02:13:04.662Z,36.69
2022-09-27T02:13:40.664Z,36.77
2022-09-27T02:14:16.405Z,36.72
2022-09-27T02:14:53.139Z,36.68
2022-09-27T02:15:24.814Z,36.70
2022-09-27T02:15:58.935Z,36.74
2022-09-27T02:16:36.206Z,36.73
2022-09-27T02:17:13.531Z,36.62
2022-09-27T02:17:47.927Z,36.83
2022-09-27T02:18:20.110Z,36.92
2022-09-27T02:18:57.607Z,36.73
2022-09-27T02:19:29.073Z,36.55
2022-09-27T02:20:03.378Z,36.88
2022-09-27T02:20:38.609Z,36.76
2022-09-27T02:21:10.070Z,36.81
2022-09-27T02:21:44.454Z,36.50
2022-09-27T02:22:21.615Z,36.75
2022-09-27T02:22:55.889Z,36.59
2022-09-27T02:23:30.108Z,36.77
2022-09-27T02:24:01.634Z,36.64
2022-09-27T02:24:37.089Z,36.57
2022-09-27T02:25:23.637Z,36.49
2022-09-27T02:25:55.061Z,36.63
2022-09-27T02:26:40.097Z,36.71
2022-09-27T02:27:12.803Z,36.72
2022-09-27T02:27:44.242Z,36.71
2022-09-27T02:28:24.230Z,36.83
2022-09-27T02:28:58.223Z,36.63
2022-09-27T02:29:34.594Z,36.56
2022-09-27T02:30:07.412Z,36.76
2022-09-27T02:30:39.109Z,36.53
2022-09-27T02:31:10.708Z,36.72
2022-09-27T02:31:42.472Z,36.38
2022-09-27T02:32:14.093Z,36.70
2022-09-27T02:32:45.681Z,36.73
2022-09-27T02:33:18.370Z,36.88
2022-09-27T02:33:52.734Z,36.63
2022-09-27T02:34:24.854Z,36.54
2022-09-27T02:34:57.345Z,36.93
2022-09-27T02:35:29.685Z,36.71
2022-09-27T02:36:01.348Z,36.73
2022-09-27T02:36:32.862Z,36.71
2022-09-27T02:37:04.384Z,36.47
2022-09-27T02:37:35.863Z,36.67
2022-09-27T02:38:07.390Z,36.55
2022-09-27T02:38:38.896Z,36.85
2022-09-27T02:39:11.488Z,36.53
2022-09-27T02:39:43.083Z,36.58
2022-09-27T02:40:14.785Z,36.65
2022-09-27T02:40:46.749Z,36.64
2022-09-27T02:41:19.229Z,36.45
2022-09-27T02:41:50.714Z,36.67
2022-09-27T02:42:22.206Z,36.68
2022-09-27T02:42:53.778Z,36.78
2022-09-27T02:43:26.158Z,36.63
2022-09-27T02:44:02.718Z,36.68
2022-09-27T02:44:34.226Z,36.47
2022-09-27T02:45:05.968Z,36.51
2022-09-27T02:46:00.806Z,36.70
2022-09-27T02:46:43.238Z,36.46
2022-09-27T02:47:27.241Z,36.44
2022-09-27T02:48:17.031Z,36.64
2022-09-27T02:48:54.184Z,36.38
2022-09-27T02:49:34.413Z,36.55
2022-09-27T02:50:08.418Z,36.79
2022-09-27T02:50:42.568Z,36.76
2022-09-27T02:51:19.742Z,36.29
2022-09-27T02:51:53.891Z,36.60
2022-09-27T02:52:43.701Z,36.63
2022-09-27T02:53:33.456Z,36.32
2022-09-27T02:54:05.003Z,36.70
2022-09-27T02:54:36.483Z,36.63
2022-09-27T02:55:23.667Z,36.45
2022-09-27T02:56:24.195Z,36.40
2022-09-27T02:56:55.645Z,36.61
2022-09-27T02:57:53.561Z,36.53
2022-09-27T02:58:33.520Z,36.72
2022-09-27T02:59:18.188Z,36.59
2022-09-27T02:59:52.027Z,36.63
2022-09-27T03:00:25.437Z,36.28
2022-09-27T03:01:05.523Z,36.52
2022-09-27T03:01:43.779Z,36.35
2022-09-27T03:02:29.518Z,36.66
2022-09-27T03:03:13.342Z,36.35
2022-09-27T03:03:55.185Z,36.67
2022-09-27T03:04:31.634Z,36.67
2022-09-27T03:05:04.352Z,36.59
2022-09-27T03:05:45.765Z,36.63
2022-09-27T03:06:17.901Z,36.42
2022-09-27T03:06:49.454Z,36.36
2022-09-27T03:07:20.969Z,36.52
2022-09-27T03:07:52.500Z,36.44
2022-09-27T03:08:24.006Z,36.45
2022-09-27T03:08:55.541Z,36.71
2022-09-27T03:09:30.342Z,36.51
2022-09-27T03:10:01.814Z,36.26
2022-09-27T03:10:33.369Z,36.39
2022-09-27T03:11:05.094Z,36.40
2022-09-27T03:11:36.585Z,36.49
2022-09-27T03:12:07.997Z,36.33
2022-09-27T03:12:39.544Z,36.20
2022-09-27T03:13:11.118Z,36.38
2022-09-27T03:14:01.833Z,36.58
2022-09-27T03:14:34.611Z,36.24
2022-09-27T03:15:06.326Z,36.64
2022-09-27T03:15:37.839Z,36.64
2022-09-27T03:16:09.351Z,36.24
2022-09-27T03:16:40.906Z,36.62
2022-09-27T03:17:12.552Z,36.42
2022-09-27T03:17:44.102Z,36.26
2022-09-27T03:18:16.621Z,36.27
2022-09-27T03:18:48.069Z,36.56
2022-09-27T03:19:19.613Z,36.49
2022-09-27T03:19:51.410Z,36.19
2022-09-27T03:20:23.109Z,36.37
2022-09-27T03:20:54.601Z,36.39
2022-09-27T03:21:26.089Z,36.63
2022-09-27T03:21:57.606Z,36.50
2022-09-27T03:22:29.119Z,36.54
2022-09-27T03:23:00.599Z,36.51
2022-09-27T03:23:32.080Z,36.55
2022-09-27T03:24:03.722Z,36.37
2022-09-27T03:24:35.118Z,36.32
2022-09-27T03:25:06.979Z,36.49
2022-09-27T03:25:38.433Z,36.42
2022-09-27T03:26:13.049Z,36.27
2022-09-27T03:26:44.937Z,36.37
2022-09-27T03:27:16.393Z,36.27
2022-09-27T03:27:47.990Z,36.50
2022-09-27T03:28:19.487Z,36.49
2022-09-27T03:28:51.086Z,36.45
2022-09-27T03:29:22.666Z,36.35
2022-09-27T03:29:54.197Z,36.36
2022-09-27T03:30:25.808Z,36.33
2022-09-27T03:30:57.384Z,36.28
2022-09-27T03:31:29.051Z,36.32
2022-09-27T03:32:00.810Z,36.42
2022-09-27T03:32:32.397Z,36.22
2022-09-27T03:33:04.116Z,36.41
2022-09-27T03:33:35.659Z,36.54
2022-09-27T03:34:07.251Z,36.22
2022-09-27T03:34:38.723Z,36.58
2022-09-27T03:35:10.402Z,36.53
2022-09-27T03:35:41.912Z,36.57
2022-09-27T03:36:13.454Z,36.32
2022-09-27T03:36:44.951Z,36.55
2022-09-27T03:37:16.442Z,36.29
2022-09-27T03:37:48.043Z,36.47
2022-09-27T03:38:19.539Z,36.16
2022-09-27T03:38:50.986Z,36.38
2022-09-27T03:39:22.605Z,36.33
2022-09-27T03:39:54.147Z,36.09
2022-09-27T03:40:25.693Z,36.19
2022-09-27T03:40:57.301Z,36.34
2022-09-27T03:41:28.841Z,36.28
2022-09-27T03:42:00.338Z,36.18
2022-09-27T03:42:31.743Z,36.32
2022-09-27T03:43:03.285Z,36.07
2022-09-27T03:43:34.800Z,36.22
2022-09-27T03:44:06.234Z,36.10
2022-09-27T03:44:37.774Z,36.09
2022-09-27T03:45:09.450Z,36.43
2022-09-27T03:45:42.755Z,36.16
2022-09-27T03:46:14.336Z,36.37
2022-09-27T03:46:45.940Z,36.19
2022-09-27T03:47:17.476Z,36.33
2022-09-27T03:47:49.069Z,36.21
2022-09-27T03:48:23.422Z,36.31
2022-09-27T03:48:58.736Z,36.26
2022-09-27T03:49:30.280Z,36.19
2022-09-27T03:50:01.806Z,36.32
2022-09-27T03:50:33.271Z,36.20
2022-09-27T03:51:04.739Z,36.21
2022-09-27T03:51:36.269Z,36.07
2022-09-27T03:52:07.799Z,36.32
2022-09-27T03:52:39.375Z,36.49
2022-09-27T03:53:10.845Z,36.17
2022-09-27T03:53:42.328Z,36.19
2022-09-27T03:54:13.803Z,36.06
2022-09-27T03:54:45.369Z,36.22
2022-09-27T03:55:16.913Z,36.25
2022-09-27T03:55:48.452Z,36.09
2022-09-27T03:56:19.934Z,36.28
2022-09-27T03:56:51.469Z,36.21
2022-09-27T03:57:22.959Z,36.11
2022-09-27T03:57:54.442Z,36.16
2022-09-27T03:58:26.112Z,36.25
2022-09-27T03:58:57.612Z,36.24
2022-09-27T03:59:29.074Z,36.23
2022-09-27T04:00:00.602Z,36.28
2022-09-27T04:00:32.113Z,36.22
2022-09-27T04:01:03.876Z,36.19
2022-09-27T04:01:35.488Z,35.95
2022-09-27T04:02:07.015Z,36.44
2022-09-27T04:02:38.529Z,35.98
2022-09-27T04:03:10.130Z,36.12
2022-09-27T04:03:41.635Z,35.93
2022-09-27T04:04:13.191Z,36.24
2022-09-27T04:04:44.708Z,36.35
2022-09-27T04:05:16.284Z,36.14
2022-09-27T04:05:47.811Z,36.04
2022-09-27T04:06:19.447Z,36.15
2022-09-27T04:06:50.927Z,36.26
2022-09-27T04:07:22.435Z,36.26
2022-09-27T04:07:53.908Z,36.16
2022-09-27T04:08:25.401Z,36.23
2022-09-27T04:08:56.852Z,36.28
2022-09-27T04:09:28.468Z,36.19
2022-09-27T04:09:59.906Z,36.10
2022-09-27T04:10:31.383Z,35.92
2022-09-27T04:11:02.955Z,36.16
2022-09-27T04:11:34.431Z,36.14
2022-09-27T04:12:05.969Z,35.98
2022-09-27T04:12:39.478Z,36.02
2022-09-27T04:13:11.010Z,35.96
2022-09-27T04:13:42.537Z,36.40
2022-09-27T04:14:14.007Z,36.28
2022-09-27T04:14:45.558Z,35.90
2022-09-27T04:15:17.071Z,36.19
2022-09-27T04:15:52.027Z,36.11
2022-09-27T04:16:24.074Z,35.79
2022-09-27T04:16:55.651Z,36.11
2022-09-27T04:17:27.246Z,35.96
2022-09-27T04:17:58.670Z,36.09
2022-09-27T04:18:30.221Z,36.12
2022-09-27T04:19:01.739Z,35.80
2022-09-27T04:19:33.235Z,36.06
2022-09-27T04:20:04.948Z,36.05
2022-09-27T04:20:36.464Z,36.16
2022-09-27T04:21:08.042Z,36.01
2022-09-27T04:21:39.541Z,36.23
2022-09-27T04:22:11.050Z,35.77
2022-09-27T04:22:42.524Z,35.76
2022-09-27T04:23:14.015Z,35.97
2022-09-27T04:23:45.494Z,36.06
2022-09-27T04:24:17.136Z,35.88
2022-09-27T04:24:48.633Z,35.91
2022-09-27T04:25:20.165Z,36.08
2022-09-27T04:25:51.675Z,35.92
2022-09-27T04:26:23.171Z,36.21
2022-09-27T04:26:54.685Z,35.78
2022-09-27T04:27:26.275Z,36.03
2022-09-27T04:27:57.849Z,35.91
2022-09-27T04:28:29.389Z,36.00
2022-09-27T04:29:01.012Z,35.70
2022-09-27T04:29:32.511Z,35.96
2022-09-27T04:30:04.175Z,35.91
2022-09-27T04:30:35.685Z,35.78
2022-09-27T04:31:07.356Z,35.68
2022-09-27T04:31:38.985Z,35.87
2022-09-27T04:32:10.526Z,36.00
2022-09-27T04:32:42.592Z,36.04
2022-09-27T04:33:14.201Z,36.00
2022-09-27T04:33:45.780Z,35.91
2022-09-27T04:34:17.260Z,36.06
2022-09-27T04:34:48.809Z,35.97
2022-09-27T04:35:20.312Z,36.02
2022-09-27T04:35:51.784Z,36.12
2022-09-27T04:36:23.259Z,35.77
2022-09-27T04:36:54.771Z,35.84
2022-09-27T04:37:26.819Z,35.82
2022-09-27T04:37:58.541Z,36.04
2022-09-27T04:38:30.013Z,35.79
2022-09-27T04:39:02.002Z,35.90
2022-09-27T04:39:33.506Z,35.82
2022-09-27T04:40:05.164Z,35.92
2022-09-27T04:40:36.898Z,35.94
2022-09-27T04:41:08.439Z,36.10
2022-09-27T04:41:40.091Z,35.88
2022-09-27T04:42:11.823Z,35.71
2022-09-27T04:42:43.345Z,35.88
2022-09-27T04:43:14.904Z,35.98
2022-09-27T04:43:46.361Z,35.86
2022-09-27T04:44:17.845Z,36.02
2022-09-27T04:44:49.476Z,35.98
2022-09-27T04:45:20.955Z,35.94
2022-09-27T04:45:52.575Z,36.22
2022-09-27T04:46:24.147Z,36.02
2022-09-27T04:46:55.711Z,36.11
2022-09-27T04:47:27.295Z,35.84
2022-09-27T04:47:58.839Z,35.94
2022-09-27T04:48:30.379Z,36.14
2022-09-27T04:49:01.993Z,36.08
2022-09-27T04:49:33.505Z,35.82
2022-09-27T04:50:05.147Z,35.94
2022-09-27T04:50:36.797Z,35.68
2022-09-27T04:51:09.325Z,35.68
2022-09-27T04:51:40.842Z,36.00
2022-09-27T04:52:12.406Z,36.06
2022-09-27T04:52:43.954Z,36.01
2022-09-27T04:53:15.471Z,35.90
2022-09-27T04:53:47.232Z,35.72
2022-09-27T04:54:18.716Z,35.74
2022-09-27T04:54:53.525Z,35.80
2022-09-27T04:55:25.159Z,35.60
2022-09-27T04:55:56.731Z,35.97
2022-09-27T04:56:28.290Z,35.91
2022-09-27T04:56:59.855Z,35.87
2022-09-27T04:57:31.335Z,35.73
2022-09-27T04:58:02.932Z,35.57
2022-09-27T04:58:34.533Z,35.95
2022-09-27T04:59:10.041Z,35.51
2022-09-27T04:59:42.344Z,35.84
2022-09-27T05:00:14.142Z,35.70
2022-09-27T05:00:46.694Z,35.77
2022-09-27T05:01:18.230Z,35.70
2022-09-27T05:01:50.243Z,35.71
2022-09-27T05:02:22.033Z,35.88
2022-09-27T05:02:53.742Z,36.00
2022-09-27T05:03:25.243Z,35.67
2022-09-27T05:03:56.746Z,35.96
2022-09-27T05:04:28.226Z,36.02
2022-09-27T05:04:59.787Z,35.75
2022-09-27T05:05:31.310Z,35.62
2022-09-27T05:06:02.919Z,35.82
2022-09-27T05:06:34.434Z,35.74
2022-09-27T05:07:05.911Z,35.49
2022-09-27T05:07:37.603Z,35.60
2022-09-27T05:08:09.116Z,35.72
2022-09-27T05:08:40.626Z,35.50
2022-09-27T05:09:12.112Z,35.68
2022-09-27T05:09:43.593Z,35.77
2022-09-27T05:10:15.095Z,35.51
2022-09-27T05:10:46.788Z,35.89
2022-09-27T05:11:18.476Z,35.71
2022-09-27T05:11:49.983Z,35.72
2022-09-27T05:12:21.513Z,35.69
2022-09-27T05:12:53.121Z,35.78
2022-09-27T05:13:24.638Z,35.82
2022-09-27T05:13:56.114Z,35.93
2022-09-27T05:14:27.536Z,35.68
2022-09-27T05:14:59.048Z,35.74
2022-09-27T05:15:30.588Z,35.68
2022-09-27T05:16:02.972Z,35.81
2022-09-27T05:16:34.484Z,35.66
2022-09-27T05:17:06.107Z,35.75
2022-09-27T05:17:37.752Z,35.73
2022-09-27T05:18:09.240Z,35.90
2022-09-27T05:18:40.744Z,35.79
2022-09-27T05:19:12.287Z,35.77
2022-09-27T05:19:43.833Z,35.76
2022-09-27T05:20:15.394Z,35.65
2022-09-27T05:20:46.907Z,35.65
2022-09-27T05:21:18.403Z,35.74
2022-09-27T05:21:49.991Z,35.78
2022-09-27T05:22:24.268Z,35.76
2022-09-27T05:22:55.733Z,35.47
2022-09-27T05:23:27.331Z,35.63
2022-09-27T05:23:58.979Z,35.94
2022-09-27T05:24:30.523Z,35.73
2022-09-27T05:25:01.971Z,35.86
2022-09-27T05:25:33.497Z,35.98
2022-09-27T05:26:05.635Z,36.03
2022-09-27T05:26:37.191Z,35.88
2022-09-27T05:27:09.117Z,35.94
2022-09-27T05:27:40.601Z,35.79
2022-09-27T05:28:12.134Z,35.79
2022-09-27T05:28:43.652Z,35.82
2022-09-27T05:29:15.261Z,35.94
2022-09-27T05:29:47.286Z,35.78
2022-09-27T05:30:18.866Z,35.99
2022-09-27T05:30:50.397Z,35.63
2022-09-27T05:31:22.082Z,35.88
2022-09-27T05:31:53.707Z,35.89
2022-09-27T05:32:25.182Z,35.75
2022-09-27T05:32:56.690Z,35.59
2022-09-27T05:33:28.164Z,35.67
2022-09-27T05:33:59.724Z,35.68
2022-09-27T05:34:31.223Z,35.88
2022-09-27T05:35:02.849Z,35.99
2022-09-27T05:35:34.365Z,35.79
2022-09-27T05:36:05.998Z,35.94
2022-09-27T05:36:37.793Z,35.81
2022-09-27T05:37:09.358Z,35.91
2022-09-27T05:37:40.845Z,35.55
2022-09-27T05:38:12.394Z,36.05
2022-09-27T05:38:43.914Z,35.99
2022-09-27T05:39:15.812Z,35.64
2022-09-27T05:39:47.492Z,35.81
2022-09-27T05:40:39.791Z,35.57
2022-09-27T05:41:10.608Z,35.69
2022-09-27T05:41:42.647Z,35.69
2022-09-27T05:42:14.270Z,35.81
2022-09-27T05:42:45.791Z,35.88
2022-09-27T05:43:17.595Z,35.77
2022-09-27T05:43:49.077Z,35.68
2022-09-27T05:44:20.595Z,35.52
2022-09-27T05:44:52.086Z,35.78
2022-09-27T05:45:23.623Z,35.75
2022-09-27T05:45:55.195Z,35.70
2022-09-27T05:46:26.899Z,35.81
2022-09-27T05:47:00.462Z,35.73
2022-09-27T05:47:32.086Z,35.69
2022-09-27T05:48:03.770Z,35.72
2022-09-27T05:48:35.356Z,35.69
2022-09-27T05:49:06.866Z,35.55
2022-09-27T05:49:38.454Z,35.59
2022-09-27T05:50:10.000Z,35.51
2022-09-27T05:50:41.475Z,35.82
2022-09-27T05:51:12.971Z,35.70
2022-09-27T05:51:44.511Z,35.89
2022-09-27T05:52:16.828Z,35.98
2022-09-27T05:52:50.810Z,35.79
2022-09-27T05:53:22.426Z,35.83
2022-09-27T05:53:53.901Z,35.77
2022-09-27T05:54:25.555Z,35.94
2022-09-27T05:54:57.038Z,35.54
2022-09-27T05:55:28.527Z,35.69
2022-09-27T05:56:03.611Z,35.55
2022-09-27T05:56:35.328Z,35.40
2022-09-27T05:57:06.828Z,35.45
2022-09-27T05:57:38.286Z,35.67
2022-09-27T05:58:10.121Z,35.69
2022-09-27T05:58:41.589Z,35.68
2022-09-27T05:59:13.082Z,35.67
2022-09-27T05:59:44.772Z,35.44
2022-09-27T06:00:16.270Z,35.52
2022-09-27T06:00:47.748Z,35.76
2022-09-27T06:01:19.397Z,35.84
2022-09-27T06:01:51.059Z,35.75
2022-09-27T06:02:22.612Z,35.82
2022-09-27T06:02:57.810Z,35.70
2022-09-27T06:03:29.404Z,35.66
2022-09-27T06:04:00.921Z,35.73
2022-09-27T06:04:32.457Z,35.85
2022-09-27T06:05:03.999Z,35.52
2022-09-27T06:05:36.080Z,35.66
2022-09-27T06:06:07.603Z,35.72
2022-09-27T06:06:39.050Z,35.65
2022-09-27T06:07:10.588Z,35.62
2022-09-27T06:07:42.004Z,35.48
2022-09-27T06:08:13.648Z,35.69
2022-09-27T06:08:45.147Z,35.62
2022-09-27T06:09:16.939Z,35.63
2022-09-27T06:09:48.417Z,35.56
2022-09-27T06:10:19.802Z,35.57
2022-09-27T06:10:51.247Z,35.82
2022-09-27T06:11:22.783Z,35.68
2022-09-27T06:11:54.246Z,35.54
2022-09-27T06:12:25.752Z,35.85
2022-09-27T06:13:00.449Z,35.44
2022-09-27T06:13:32.170Z,35.80
2022-09-27T06:14:03.822Z,35.87
2022-09-27T06:14:35.264Z,35.80
2022-09-27T06:15:06.940Z,35.69
2022-09-27T06:15:39.108Z,35.92
2022-09-27T06:16:11.006Z,35.52
2022-09-27T06:16:42.571Z,35.59
2022-09-27T06:17:14.098Z,35.66
2022-09-27T06:17:45.825Z,35.77
2022-09-27T06:18:17.355Z,35.46
2022-09-27T06:18:48.810Z,35.53
2022-09-27T06:19:20.450Z,35.87
2022-09-27T06:19:51.918Z,35.70
2022-09-27T06:20:23.441Z,35.66
2022-09-27T06:20:55.088Z,35.63
2022-09-27T06:21:26.550Z,35.59
2022-09-27T06:21:58.023Z,35.65
2022-09-27T06:22:29.522Z,35.57
2022-09-27T06:23:06.474Z,35.56
2022-09-27T06:23:37.893Z,35.81
2022-09-27T06:24:09.380Z,35.40
2022-09-27T06:24:40.961Z,35.62
2022-09-27T06:25:12.545Z,35.69
2022-09-27T06:25:44.185Z,35.63
2022-09-27T06:26:15.768Z,35.71
2022-09-27T06:26:47.370Z,35.88
2022-09-27T06:27:18.897Z,35.69
2022-09-27T06:27:50.606Z,35.60
2022-09-27T06:28:22.270Z,35.53
2022-09-27T06:28:54.022Z,35.66
2022-09-27T06:29:25.477Z,35.59
2022-09-27T06:29:57.003Z,35.53
2022-09-27T06:30:28.712Z,35.40
2022-09-27T06:31:00.246Z,35.68
2022-09-27T06:31:31.815Z,35.43
2022-09-27T06:32:03.329Z,35.62
2022-09-27T06:32:34.826Z,35.71
2022-09-27T06:33:06.361Z,35.74
2022-09-27T06:33:37.996Z,35.92
2022-09-27T06:34:09.470Z,35.54
2022-09-27T06:34:40.986Z,35.53
2022-09-27T06:35:12.484Z,35.59
2022-09-27T06:35:44.002Z,35.62
2022-09-27T06:36:52.016Z,35.56
2022-09-27T06:37:26.450Z,35.62
2022-09-27T06:37:57.960Z,35.44
2022-09-27T06:38:29.472Z,35.55
2022-09-27T06:39:01.097Z,35.69
2022-09-27T06:39:32.648Z,35.60
2022-09-27T06:40:04.263Z,35.50
2022-09-27T06:40:35.951Z,35.51
2022-09-27T06:41:07.504Z,35.51
2022-09-27T06:41:38.983Z,35.45
2022-09-27T06:42:10.568Z,35.36
2022-09-27T06:42:42.066Z,35.74
2022-09-27T06:43:14.365Z,35.38
2022-09-27T06:43:45.935Z,35.77
2022-09-27T06:44:17.452Z,35.56
2022-09-27T06:44:50.219Z,35.40
2022-09-27T06:45:21.982Z,35.38
2022-09-27T06:45:53.617Z,35.62
2022-09-27T06:46:25.189Z,35.57
2022-09-27T06:46:56.728Z,35.55
2022-09-27T06:47:28.256Z,35.51
2022-09-27T06:47:59.808Z,35.65
2022-09-27T06:48:31.702Z,35.39
2022-09-27T06:49:03.148Z,35.69
2022-09-27T06:49:34.799Z,35.72
2022-09-27T06:50:06.542Z,35.77
2022-09-27T06:50:38.500Z,35.92
2022-09-27T06:51:10.037Z,35.60
2022-09-27T06:51:41.566Z,35.58
2022-09-27T06:52:13.211Z,35.35
2022-09-27T06:52:48.053Z,35.86
2022-09-27T06:53:19.592Z,35.37
2022-09-27T06:53:51.119Z,35.60
2022-09-27T06:54:22.612Z,35.55
2022-09-27T06:54:54.159Z,35.36
2022-09-27T06:55:25.625Z,35.49
2022-09-27T06:56:00.692Z,35.49
2022-09-27T06:56:32.252Z,35.42
2022-09-27T06:57:03.872Z,35.58
2022-09-27T06:57:35.481Z,35.50
2022-09-27T06:58:07.275Z,35.78
2022-09-27T06:58:38.945Z,35.52
2022-09-27T06:59:10.515Z,35.78
2022-09-27T06:59:41.975Z,35.64
2022-09-27T07:00:13.636Z,35.39
2022-09-27T07:00:45.152Z,35.49
2022-09-27T07:01:16.766Z,35.42
2022-09-27T07:01:48.381Z,35.48
2022-09-27T07:02:19.985Z,35.41
2022-09-27T07:02:51.514Z,35.28
2022-09-27T07:03:23.330Z,35.30
2022-09-27T07:03:54.753Z,35.56
2022-09-27T07:04:26.242Z,35.22
2022-09-27T07:04:57.961Z,35.43
2022-09-27T07:05:29.661Z,35.38
2022-09-27T07:06:01.828Z,35.42
2022-09-27T07:06:33.232Z,35.55
2022-09-27T07:07:04.762Z,35.50
2022-09-27T07:07:36.333Z,35.32
2022-09-27T07:08:08.895Z,35.34
2022-09-27T07:08:40.416Z,35.48
2022-09-27T07:09:11.906Z,35.44